Terminal Aerodrome Forecast
Issued by NWS Missoula, MT

Home | Current Version | Previous Version | Text Only | Print | Product List | Glossary On
Versions: 1 2 3 4 5 6 7 8 9 10 11 12 13 14 15 16 17 18 19 20 21 22 23 24 25 26 27 28 29 30 31 32
399
FTUS45 KMSO 221738
TAFMSO
TAF
KMSO 221738Z 2218/2318 12003KT 1/4SM FZFG OVC002
     FM221830 12003KT 4SM BR SCT002
     FM221900 11005KT P6SM SCT060
     FM222300 09004KT P6SM VCSH BKN080 OVC100
     FM230200 12005KT 3SM -SN BR BKN015 OVC030
     FM230500 12005KT 5SM -SN BR SCT015 BKN030
     FM231200 VRB02KT 2SM BR BKN010=

USA.gov is the U.S. government's official web portal to all federal, state and local government web resources and services.